Dennison, Illinois
Current Conditions -  °F | °C
As of 8:53 AM on Sunday 23 Nov 2014 (Local Time) from KHUF Reporting Station
Clear Clear  
Wind Chill: 54°   Ceiling: Unl
Heat Index: 54°   Visibility: 10mi
Dew Point: 44°   Wind: 12mph
Humidity: 69%   Direction: 160°SSE
Pressure: 29.82"   Gusts: NA
Location:  39.46°N, 87.6°W
Report Text: KHUF 231453Z 16010KT 10SM CLR 12/07 A2982 RMK AO2 SLP097 T01220067 58017
Loading
Personal Weather Stations






























Interactive Weather Map New forecast layout! Learn more

10-Day Weather Forecast

Advertisements
Track Severe Weather on mobile